sensor_id;sensor_type;location;lat;lon;timestamp;temperature;humidity
18426;DHT22;9340;48.756;9.226;2022-12-28T00:01:29;2.00;99.90
18426;DHT22;9340;48.756;9.226;2022-12-28T00:03:58;1.90;99.90
18426;DHT22;9340;48.756;9.226;2022-12-28T00:06:27;2.00;99.90
18426;DHT22;9340;48.756;9.226;2022-12-28T00:08:55;2.00;99.90
18426;DHT22;9340;48.756;9.226;2022-12-28T00:11:24;2.00;99.90
18426;DHT22;9340;48.756;9.226;2022-12-28T00:13:53;2.00;99.90
18426;DHT22;9340;48.756;9.226;2022-12-28T00:16:25;2.00;99.90
18426;DHT22;9340;48.756;9.226;2022-12-28T00:18:53;2.00;99.90
18426;DHT22;9340;48.756;9.226;2022-12-28T00:21:22;1.90;99.90
18426;DHT22;9340;48.756;9.226;2022-12-28T00:23:54;2.00;99.90
18426;DHT22;9340;48.756;9.226;2022-12-28T00:26:22;2.00;99.90
18426;DHT22;9340;48.756;9.226;2022-12-28T00:28:49;2.00;99.90
18426;DHT22;9340;48.756;9.226;2022-12-28T00:31:17;1.90;99.90
18426;DHT22;9340;48.756;9.226;2022-12-28T00:33:44;2.00;99.90
18426;DHT22;9340;48.756;9.226;2022-12-28T00:36:12;2.00;99.90
18426;DHT22;9340;48.756;9.226;2022-12-28T00:38:40;2.00;99.90
18426;DHT22;9340;48.756;9.226;2022-12-28T00:41:09;2.10;99.90
18426;DHT22;9340;48.756;9.226;2022-12-28T00:43:36;2.20;99.90
18426;DHT22;9340;48.756;9.226;2022-12-28T00:46:04;2.10;99.90
18426;DHT22;9340;48.756;9.226;2022-12-28T00:48:31;2.20;99.90
18426;DHT22;9340;48.756;9.226;2022-12-28T00:51:02;2.20;99.90
18426;DHT22;9340;48.756;9.226;2022-12-28T00:53:30;2.20;99.90
18426;DHT22;9340;48.756;9.226;2022-12-28T00:56:04;2.20;99.90
18426;DHT22;9340;48.756;9.226;2022-12-28T00:58:33;2.20;99.90
18426;DHT22;9340;48.756;9.226;2022-12-28T01:01:02;2.20;99.90
18426;DHT22;9340;48.756;9.226;2022-12-28T01:03:29;2.20;99.90
18426;DHT22;9340;48.756;9.226;2022-12-28T01:05:56;2.20;99.90
18426;DHT22;9340;48.756;9.226;2022-12-28T01:08:24;2.20;99.90
18426;DHT22;9340;48.756;9.226;2022-12-28T01:10:51;2.30;99.90
18426;DHT22;9340;48.756;9.226;2022-12-28T01:13:18;2.30;99.90
18426;DHT22;9340;48.756;9.226;2022-12-28T01:15:47;2.50;99.90
18426;DHT22;9340;48.756;9.226;2022-12-28T01:18:14;2.50;99.90
18426;DHT22;9340;48.756;9.226;2022-12-28T01:20:42;2.60;99.90
18426;DHT22;9340;48.756;9.226;2022-12-28T01:23:10;2.60;99.90
18426;DHT22;9340;48.756;9.226;2022-12-28T01:25:37;2.80;99.90
18426;DHT22;9340;48.756;9.226;2022-12-28T01:28:05;2.90;99.90
18426;DHT22;9340;48.756;9.226;2022-12-28T01:30:32;3.00;99.90
18426;DHT22;9340;48.756;9.226;2022-12-28T01:33:00;3.10;99.90
18426;DHT22;9340;48.756;9.226;2022-12-28T01:35:27;3.10;99.90
18426;DHT22;9340;48.756;9.226;2022-12-28T01:37:55;3.10;99.90
18426;DHT22;9340;48.756;9.226;2022-12-28T01:40:23;3.20;99.90
18426;DHT22;9340;48.756;9.226;2022-12-28T01:42:51;3.30;99.90
18426;DHT22;9340;48.756;9.226;2022-12-28T01:45:20;3.20;99.90
18426;DHT22;9340;48.756;9.226;2022-12-28T01:47:49;3.20;99.90
18426;DHT22;9340;48.756;9.226;2022-12-28T01:50:22;3.30;99.90
18426;DHT22;9340;48.756;9.226;2022-12-28T01:52:53;3.20;99.90
18426;DHT22;9340;48.756;9.226;2022-12-28T01:55:25;3.30;99.90
18426;DHT22;9340;48.756;9.226;2022-12-28T01:57:56;3.40;99.90
18426;DHT22;9340;48.756;9.226;2022-12-28T02:00:24;3.40;99.90
18426;DHT22;9340;48.756;9.226;2022-12-28T02:02:54;3.40;99.90
18426;DHT22;9340;48.756;9.226;2022-12-28T02:05:27;3.40;99.90
18426;DHT22;9340;48.756;9.226;2022-12-28T02:08:00;3.50;99.90
18426;DHT22;9340;48.756;9.226;2022-12-28T02:10:29;3.50;99.90
18426;DHT22;9340;48.756;9.226;2022-12-28T02:12:58;3.60;99.90
18426;DHT22;9340;48.756;9.226;2022-12-28T02:15:26;3.70;99.90
18426;DHT22;9340;48.756;9.226;2022-12-28T02:17:53;3.70;99.90
18426;DHT22;9340;48.756;9.226;2022-12-28T02:20:21;3.70;99.90
18426;DHT22;9340;48.756;9.226;2022-12-28T02:23:13;3.70;99.90
18426;DHT22;9340;48.756;9.226;2022-12-28T02:26:07;3.70;99.90
18426;DHT22;9340;48.756;9.226;2022-12-28T02:28:50;3.70;99.90
18426;DHT22;9340;48.756;9.226;2022-12-28T02:31:27;3.70;99.90
18426;DHT22;9340;48.756;9.226;2022-12-28T02:34:06;3.70;99.90
18426;DHT22;9340;48.756;9.226;2022-12-28T02:36:40;3.80;99.90
18426;DHT22;9340;48.756;9.226;2022-12-28T02:39:14;3.80;99.90
18426;DHT22;9340;48.756;9.226;2022-12-28T02:41:44;3.90;99.90
18426;DHT22;9340;48.756;9.226;2022-12-28T02:44:14;3.90;99.90
18426;DHT22;9340;48.756;9.226;2022-12-28T02:47:02;3.90;99.90
18426;DHT22;9340;48.756;9.226;2022-12-28T02:49:47;3.90;99.90
18426;DHT22;9340;48.756;9.226;2022-12-28T02:52:41;4.00;99.90
18426;DHT22;9340;48.756;9.226;2022-12-28T02:55:23;4.00;99.90
18426;DHT22;9340;48.756;9.226;2022-12-28T03:01:24;4.10;99.90
18426;DHT22;9340;48.756;9.226;2022-12-28T03:04:05;4.10;99.90
18426;DHT22;9340;48.756;9.226;2022-12-28T03:06:41;4.10;99.90
18426;DHT22;9340;48.756;9.226;2022-12-28T03:09:47;4.10;99.90
18426;DHT22;9340;48.756;9.226;2022-12-28T03:12:19;4.10;99.90
18426;DHT22;9340;48.756;9.226;2022-12-28T03:14:49;4.20;99.90
18426;DHT22;9340;48.756;9.226;2022-12-28T03:17:21;4.20;99.90
18426;DHT22;9340;48.756;9.226;2022-12-28T03:20:10;4.30;99.90
18426;DHT22;9340;48.756;9.226;2022-12-28T03:22:57;4.30;99.90
18426;DHT22;9340;48.756;9.226;2022-12-28T03:25:44;4.30;99.90
18426;DHT22;9340;48.756;9.226;2022-12-28T03:28:32;4.40;99.90
18426;DHT22;9340;48.756;9.226;2022-12-28T03:31:20;4.30;99.90
18426;DHT22;9340;48.756;9.226;2022-12-28T03:33:51;4.40;99.90
18426;DHT22;9340;48.756;9.226;2022-12-28T03:36:42;4.40;99.90
18426;DHT22;9340;48.756;9.226;2022-12-28T03:39:15;4.40;99.90
18426;DHT22;9340;48.756;9.226;2022-12-28T03:41:52;4.40;99.90
18426;DHT22;9340;48.756;9.226;2022-12-28T03:44:38;4.40;99.90
18426;DHT22;9340;48.756;9.226;2022-12-28T03:47:08;4.40;99.90
18426;DHT22;9340;48.756;9.226;2022-12-28T03:49:38;4.40;99.90
18426;DHT22;9340;48.756;9.226;2022-12-28T03:52:07;4.40;99.90
18426;DHT22;9340;48.756;9.226;2022-12-28T03:54:35;4.40;99.90
18426;DHT22;9340;48.756;9.226;2022-12-28T03:57:02;4.40;99.90
18426;DHT22;9340;48.756;9.226;2022-12-28T03:59:29;4.30;99.90
18426;DHT22;9340;48.756;9.226;2022-12-28T04:01:56;4.30;99.90
18426;DHT22;9340;48.756;9.226;2022-12-28T04:04:24;4.20;99.90
18426;DHT22;9340;48.756;9.226;2022-12-28T04:06:52;4.30;99.90
18426;DHT22;9340;48.756;9.226;2022-12-28T04:09:19;4.30;99.90
18426;DHT22;9340;48.756;9.226;2022-12-28T04:11:47;4.20;99.90
18426;DHT22;9340;48.756;9.226;2022-12-28T04:14:13;4.30;99.90
18426;DHT22;9340;48.756;9.226;2022-12-28T04:16:41;4.30;99.90
18426;DHT22;9340;48.756;9.226;2022-12-28T04:19:08;4.30;99.90
18426;DHT22;9340;48.756;9.226;2022-12-28T04:21:35;4.40;99.90
18426;DHT22;9340;48.756;9.226;2022-12-28T04:24:04;4.40;99.90
18426;DHT22;9340;48.756;9.226;2022-12-28T04:26:32;4.40;99.90
18426;DHT22;9340;48.756;9.226;2022-12-28T04:28:58;4.40;99.90
18426;DHT22;9340;48.756;9.226;2022-12-28T04:31:27;4.50;99.90
18426;DHT22;9340;48.756;9.226;2022-12-28T04:33:56;4.40;99.90
18426;DHT22;9340;48.756;9.226;2022-12-28T04:36:24;4.40;99.90
18426;DHT22;9340;48.756;9.226;2022-12-28T04:38:51;4.40;99.90
18426;DHT22;9340;48.756;9.226;2022-12-28T04:41:20;4.50;99.90
18426;DHT22;9340;48.756;9.226;2022-12-28T04:43:47;4.60;99.90
18426;DHT22;9340;48.756;9.226;2022-12-28T04:46:15;4.60;99.90
18426;DHT22;9340;48.756;9.226;2022-12-28T04:48:43;4.60;99.90
18426;DHT22;9340;48.756;9.226;2022-12-28T04:51:15;4.60;99.90
18426;DHT22;9340;48.756;9.226;2022-12-28T04:53:42;4.60;99.90
18426;DHT22;9340;48.756;9.226;2022-12-28T04:56:10;4.70;99.90
18426;DHT22;9340;48.756;9.226;2022-12-28T04:58:39;4.80;99.90
18426;DHT22;9340;48.756;9.226;2022-12-28T05:01:08;4.80;99.90
18426;DHT22;9340;48.756;9.226;2022-12-28T05:03:38;4.80;99.90
18426;DHT22;9340;48.756;9.226;2022-12-28T05:06:07;4.70;99.90
18426;DHT22;9340;48.756;9.226;2022-12-28T05:08:36;4.70;99.90
18426;DHT22;9340;48.756;9.226;2022-12-28T05:11:05;4.70;99.90
18426;DHT22;9340;48.756;9.226;2022-12-28T05:13:33;4.70;99.90
18426;DHT22;9340;48.756;9.226;2022-12-28T05:16:02;4.80;99.90
18426;DHT22;9340;48.756;9.226;2022-12-28T05:18:29;4.70;99.90
18426;DHT22;9340;48.756;9.226;2022-12-28T05:20:59;4.80;99.90
18426;DHT22;9340;48.756;9.226;2022-12-28T05:23:27;4.80;99.90
18426;DHT22;9340;48.756;9.226;2022-12-28T05:25:55;4.80;99.90
18426;DHT22;9340;48.756;9.226;2022-12-28T05:28:23;4.80;99.90
18426;DHT22;9340;48.756;9.226;2022-12-28T05:30:51;4.80;99.90
18426;DHT22;9340;48.756;9.226;2022-12-28T05:33:20;4.80;99.90
18426;DHT22;9340;48.756;9.226;2022-12-28T05:35:48;4.80;99.90
18426;DHT22;9340;48.756;9.226;2022-12-28T05:38:15;4.80;99.90
18426;DHT22;9340;48.756;9.226;2022-12-28T05:40:42;4.80;99.90
18426;DHT22;9340;48.756;9.226;2022-12-28T05:43:09;4.80;99.90
18426;DHT22;9340;48.756;9.226;2022-12-28T05:45:36;4.80;99.90
18426;DHT22;9340;48.756;9.226;2022-12-28T05:48:03;4.80;99.90
18426;DHT22;9340;48.756;9.226;2022-12-28T05:50:31;4.80;99.90
18426;DHT22;9340;48.756;9.226;2022-12-28T05:52:58;4.80;99.90
18426;DHT22;9340;48.756;9.226;2022-12-28T05:55:25;4.80;99.90
18426;DHT22;9340;48.756;9.226;2022-12-28T05:58:01;4.70;99.90
18426;DHT22;9340;48.756;9.226;2022-12-28T06:00:30;4.80;99.90
18426;DHT22;9340;48.756;9.226;2022-12-28T06:02:57;4.80;99.90
18426;DHT22;9340;48.756;9.226;2022-12-28T06:05:24;4.80;99.90
18426;DHT22;9340;48.756;9.226;2022-12-28T06:07:53;4.80;99.90
18426;DHT22;9340;48.756;9.226;2022-12-28T06:10:20;4.70;99.90
18426;DHT22;9340;48.756;9.226;2022-12-28T06:12:47;4.80;99.90
18426;DHT22;9340;48.756;9.226;2022-12-28T06:15:14;4.80;99.90
18426;DHT22;9340;48.756;9.226;2022-12-28T06:17:41;4.90;99.90
18426;DHT22;9340;48.756;9.226;2022-12-28T06:20:09;4.90;99.90
18426;DHT22;9340;48.756;9.226;2022-12-28T06:22:36;5.10;99.90
18426;DHT22;9340;48.756;9.226;2022-12-28T06:25:06;5.20;99.90
18426;DHT22;9340;48.756;9.226;2022-12-28T06:27:33;5.20;99.90
18426;DHT22;9340;48.756;9.226;2022-12-28T06:30:00;5.20;99.90
18426;DHT22;9340;48.756;9.226;2022-12-28T06:32:28;5.10;99.90
18426;DHT22;9340;48.756;9.226;2022-12-28T06:34:55;5.00;99.90
18426;DHT22;9340;48.756;9.226;2022-12-28T06:37:22;4.90;99.90
18426;DHT22;9340;48.756;9.226;2022-12-28T06:39:49;4.90;99.90
18426;DHT22;9340;48.756;9.226;2022-12-28T06:42:18;4.90;99.90
18426;DHT22;9340;48.756;9.226;2022-12-28T06:44:45;4.90;99.90
18426;DHT22;9340;48.756;9.226;2022-12-28T06:47:12;4.80;99.90
18426;DHT22;9340;48.756;9.226;2022-12-28T06:49:39;4.80;99.90
18426;DHT22;9340;48.756;9.226;2022-12-28T06:52:06;4.90;99.90
18426;DHT22;9340;48.756;9.226;2022-12-28T06:54:33;4.90;99.90
18426;DHT22;9340;48.756;9.226;2022-12-28T06:57:00;4.80;99.90
18426;DHT22;9340;48.756;9.226;2022-12-28T06:59:28;4.80;99.90
18426;DHT22;9340;48.756;9.226;2022-12-28T07:01:55;4.90;99.90
18426;DHT22;9340;48.756;9.226;2022-12-28T07:04:22;4.90;99.90
18426;DHT22;9340;48.756;9.226;2022-12-28T07:06:49;4.80;99.90
18426;DHT22;9340;48.756;9.226;2022-12-28T07:09:17;4.80;99.90
18426;DHT22;9340;48.756;9.226;2022-12-28T07:11:44;4.80;99.90
18426;DHT22;9340;48.756;9.226;2022-12-28T07:14:11;4.80;99.90
18426;DHT22;9340;48.756;9.226;2022-12-28T07:16:40;4.80;99.90
18426;DHT22;9340;48.756;9.226;2022-12-28T07:19:07;4.70;99.90
18426;DHT22;9340;48.756;9.226;2022-12-28T07:21:36;4.80;99.90
18426;DHT22;9340;48.756;9.226;2022-12-28T07:24:04;4.80;99.90
18426;DHT22;9340;48.756;9.226;2022-12-28T07:26:34;4.90;99.90
18426;DHT22;9340;48.756;9.226;2022-12-28T07:29:04;4.90;99.90
18426;DHT22;9340;48.756;9.226;2022-12-28T07:31:33;5.00;99.90
18426;DHT22;9340;48.756;9.226;2022-12-28T07:34:01;5.10;99.90
18426;DHT22;9340;48.756;9.226;2022-12-28T07:36:29;5.10;99.90
18426;DHT22;9340;48.756;9.226;2022-12-28T07:38:58;5.20;99.90
18426;DHT22;9340;48.756;9.226;2022-12-28T07:41:26;5.20;99.90
18426;DHT22;9340;48.756;9.226;2022-12-28T07:43:54;5.30;99.90
18426;DHT22;9340;48.756;9.226;2022-12-28T07:46:22;5.30;99.90
18426;DHT22;9340;48.756;9.226;2022-12-28T07:48:50;5.40;99.90
18426;DHT22;9340;48.756;9.226;2022-12-28T07:51:20;5.40;99.90
18426;DHT22;9340;48.756;9.226;2022-12-28T07:53:48;5.50;99.90
18426;DHT22;9340;48.756;9.226;2022-12-28T07:56:17;5.50;99.90
18426;DHT22;9340;48.756;9.226;2022-12-28T07:58:47;5.50;99.90
18426;DHT22;9340;48.756;9.226;2022-12-28T08:01:17;5.50;99.90
18426;DHT22;9340;48.756;9.226;2022-12-28T08:03:44;5.40;99.90
18426;DHT22;9340;48.756;9.226;2022-12-28T08:06:13;5.50;99.90
18426;DHT22;9340;48.756;9.226;2022-12-28T08:08:43;5.60;99.90
18426;DHT22;9340;48.756;9.226;2022-12-28T08:11:12;5.60;99.90
18426;DHT22;9340;48.756;9.226;2022-12-28T08:13:41;5.60;99.90
18426;DHT22;9340;48.756;9.226;2022-12-28T08:16:09;5.60;99.90
18426;DHT22;9340;48.756;9.226;2022-12-28T08:18:37;5.60;99.90
18426;DHT22;9340;48.756;9.226;2022-12-28T08:21:10;5.70;99.90
18426;DHT22;9340;48.756;9.226;2022-12-28T08:23:38;5.80;99.90
18426;DHT22;9340;48.756;9.226;2022-12-28T08:26:09;5.90;99.90
18426;DHT22;9340;48.756;9.226;2022-12-28T08:28:40;5.90;99.90
18426;DHT22;9340;48.756;9.226;2022-12-28T08:31:08;6.00;99.90
18426;DHT22;9340;48.756;9.226;2022-12-28T08:33:36;6.00;99.90
18426;DHT22;9340;48.756;9.226;2022-12-28T08:36:03;6.00;99.90
18426;DHT22;9340;48.756;9.226;2022-12-28T08:38:31;6.10;99.90
18426;DHT22;9340;48.756;9.226;2022-12-28T08:41:00;6.20;99.90
18426;DHT22;9340;48.756;9.226;2022-12-28T08:43:30;6.20;99.90
18426;DHT22;9340;48.756;9.226;2022-12-28T08:45:58;6.30;99.90
18426;DHT22;9340;48.756;9.226;2022-12-28T08:48:26;6.30;99.90
18426;DHT22;9340;48.756;9.226;2022-12-28T08:50:54;6.40;99.90
18426;DHT22;9340;48.756;9.226;2022-12-28T08:53:21;6.40;99.90
18426;DHT22;9340;48.756;9.226;2022-12-28T08:55:49;6.50;99.90
18426;DHT22;9340;48.756;9.226;2022-12-28T08:58:16;6.50;99.90
18426;DHT22;9340;48.756;9.226;2022-12-28T09:00:44;6.60;99.90
18426;DHT22;9340;48.756;9.226;2022-12-28T09:03:11;6.70;99.90
18426;DHT22;9340;48.756;9.226;2022-12-28T09:05:39;6.80;99.90
18426;DHT22;9340;48.756;9.226;2022-12-28T09:08:06;6.90;99.90
18426;DHT22;9340;48.756;9.226;2022-12-28T09:10:32;7.10;99.90
18426;DHT22;9340;48.756;9.226;2022-12-28T09:12:59;7.20;99.90
18426;DHT22;9340;48.756;9.226;2022-12-28T09:15:26;7.40;99.90
18426;DHT22;9340;48.756;9.226;2022-12-28T09:17:55;7.50;99.90
18426;DHT22;9340;48.756;9.226;2022-12-28T09:20:21;7.60;99.90
18426;DHT22;9340;48.756;9.226;2022-12-28T09:22:49;7.70;99.90
18426;DHT22;9340;48.756;9.226;2022-12-28T09:25:16;7.70;99.90
18426;DHT22;9340;48.756;9.226;2022-12-28T09:27:46;7.80;99.90
18426;DHT22;9340;48.756;9.226;2022-12-28T09:30:13;7.80;99.90
18426;DHT22;9340;48.756;9.226;2022-12-28T09:32:40;7.90;99.90
18426;DHT22;9340;48.756;9.226;2022-12-28T09:35:08;8.00;99.90
18426;DHT22;9340;48.756;9.226;2022-12-28T09:37:35;8.00;99.90
18426;DHT22;9340;48.756;9.226;2022-12-28T09:40:03;8.00;99.90
18426;DHT22;9340;48.756;9.226;2022-12-28T09:42:30;8.00;99.90
18426;DHT22;9340;48.756;9.226;2022-12-28T09:45:00;8.10;99.90
18426;DHT22;9340;48.756;9.226;2022-12-28T09:47:34;8.00;99.90
18426;DHT22;9340;48.756;9.226;2022-12-28T09:53:24;7.90;99.90
18426;DHT22;9340;48.756;9.226;2022-12-28T09:55:59;8.00;99.90
18426;DHT22;9340;48.756;9.226;2022-12-28T09:58:29;8.00;99.90
18426;DHT22;9340;48.756;9.226;2022-12-28T10:00:58;8.00;99.90
18426;DHT22;9340;48.756;9.226;2022-12-28T10:03:30;7.90;99.90
18426;DHT22;9340;48.756;9.226;2022-12-28T10:05:59;8.00;99.90
18426;DHT22;9340;48.756;9.226;2022-12-28T10:08:27;8.00;99.90
18426;DHT22;9340;48.756;9.226;2022-12-28T10:10:59;8.20;99.90
18426;DHT22;9340;48.756;9.226;2022-12-28T10:13:37;8.40;99.90
18426;DHT22;9340;48.756;9.226;2022-12-28T10:16:05;8.50;99.90
18426;DHT22;9340;48.756;9.226;2022-12-28T10:18:37;8.60;99.90
18426;DHT22;9340;48.756;9.226;2022-12-28T10:21:06;8.70;99.90
18426;DHT22;9340;48.756;9.226;2022-12-28T10:23:34;8.70;99.90
18426;DHT22;9340;48.756;9.226;2022-12-28T10:26:04;8.80;99.90
18426;DHT22;9340;48.756;9.226;2022-12-28T10:28:39;8.90;99.90
18426;DHT22;9340;48.756;9.226;2022-12-28T10:31:09;8.90;99.90
18426;DHT22;9340;48.756;9.226;2022-12-28T10:33:38;9.00;99.90
18426;DHT22;9340;48.756;9.226;2022-12-28T10:36:11;9.10;99.90
18426;DHT22;9340;48.756;9.226;2022-12-28T10:38:41;9.30;99.90
18426;DHT22;9340;48.756;9.226;2022-12-28T10:41:12;9.50;99.90
18426;DHT22;9340;48.756;9.226;2022-12-28T10:43:43;9.70;99.90
18426;DHT22;9340;48.756;9.226;2022-12-28T10:46:15;9.90;99.90
18426;DHT22;9340;48.756;9.226;2022-12-28T10:48:46;10.30;99.90
18426;DHT22;9340;48.756;9.226;2022-12-28T10:51:16;10.60;99.90
18426;DHT22;9340;48.756;9.226;2022-12-28T10:53:46;10.80;99.90
18426;DHT22;9340;48.756;9.226;2022-12-28T10:56:23;10.90;99.90
18426;DHT22;9340;48.756;9.226;2022-12-28T10:58:51;11.00;99.90
18426;DHT22;9340;48.756;9.226;2022-12-28T11:01:23;10.90;99.90
18426;DHT22;9340;48.756;9.226;2022-12-28T11:04:00;10.90;99.90
18426;DHT22;9340;48.756;9.226;2022-12-28T11:06:30;10.90;99.90
18426;DHT22;9340;48.756;9.226;2022-12-28T11:11:44;10.90;99.90
18426;DHT22;9340;48.756;9.226;2022-12-28T11:14:17;10.80;99.90
18426;DHT22;9340;48.756;9.226;2022-12-28T11:16:49;10.80;99.90
18426;DHT22;9340;48.756;9.226;2022-12-28T11:19:18;10.60;99.90
18426;DHT22;9340;48.756;9.226;2022-12-28T11:21:47;10.50;99.90
18426;DHT22;9340;48.756;9.226;2022-12-28T11:24:16;10.30;99.90
18426;DHT22;9340;48.756;9.226;2022-12-28T11:26:44;10.10;99.90
18426;DHT22;9340;48.756;9.226;2022-12-28T11:29:13;10.00;99.90
18426;DHT22;9340;48.756;9.226;2022-12-28T11:31:44;9.90;99.90
18426;DHT22;9340;48.756;9.226;2022-12-28T11:34:17;9.80;99.90
18426;DHT22;9340;48.756;9.226;2022-12-28T11:36:46;9.80;99.90
18426;DHT22;9340;48.756;9.226;2022-12-28T11:39:42;9.90;99.90
18426;DHT22;9340;48.756;9.226;2022-12-28T11:42:10;9.90;99.90
18426;DHT22;9340;48.756;9.226;2022-12-28T11:44:51;9.90;99.90
18426;DHT22;9340;48.756;9.226;2022-12-28T11:47:24;10.00;99.90
18426;DHT22;9340;48.756;9.226;2022-12-28T11:53:00;10.20;99.90
18426;DHT22;9340;48.756;9.226;2022-12-28T11:55:46;10.30;99.90
18426;DHT22;9340;48.756;9.226;2022-12-28T12:04:39;10.40;99.90
18426;DHT22;9340;48.756;9.226;2022-12-28T12:07:25;10.40;99.90
18426;DHT22;9340;48.756;9.226;2022-12-28T12:10:32;10.40;99.90
18426;DHT22;9340;48.756;9.226;2022-12-28T12:13:02;10.50;99.90
18426;DHT22;9340;48.756;9.226;2022-12-28T12:15:38;10.50;99.90
18426;DHT22;9340;48.756;9.226;2022-12-28T12:18:07;10.50;99.90
18426;DHT22;9340;48.756;9.226;2022-12-28T12:20:46;10.40;99.90
18426;DHT22;9340;48.756;9.226;2022-12-28T12:23:25;10.30;99.90
18426;DHT22;9340;48.756;9.226;2022-12-28T12:25:57;10.20;99.90
18426;DHT22;9340;48.756;9.226;2022-12-28T12:28:34;10.10;99.90
18426;DHT22;9340;48.756;9.226;2022-12-28T12:31:05;10.10;99.90
18426;DHT22;9340;48.756;9.226;2022-12-28T12:33:35;10.20;99.90
18426;DHT22;9340;48.756;9.226;2022-12-28T12:36:15;10.30;99.90
18426;DHT22;9340;48.756;9.226;2022-12-28T12:39:14;10.40;99.90
18426;DHT22;9340;48.756;9.226;2022-12-28T12:41:48;10.50;99.90
18426;DHT22;9340;48.756;9.226;2022-12-28T12:44:27;10.70;99.90
18426;DHT22;9340;48.756;9.226;2022-12-28T12:47:36;10.80;99.90
18426;DHT22;9340;48.756;9.226;2022-12-28T12:50:50;11.00;99.90
18426;DHT22;9340;48.756;9.226;2022-12-28T12:53:29;11.00;99.90
18426;DHT22;9340;48.756;9.226;2022-12-28T12:56:05;10.90;99.90
18426;DHT22;9340;48.756;9.226;2022-12-28T12:58:45;10.90;99.90
18426;DHT22;9340;48.756;9.226;2022-12-28T13:01:25;10.90;99.90
18426;DHT22;9340;48.756;9.226;2022-12-28T13:03:56;10.90;99.90
18426;DHT22;9340;48.756;9.226;2022-12-28T13:06:27;10.80;99.90
18426;DHT22;9340;48.756;9.226;2022-12-28T13:08:57;10.80;99.90
18426;DHT22;9340;48.756;9.226;2022-12-28T13:11:27;10.80;99.90
18426;DHT22;9340;48.756;9.226;2022-12-28T13:13:56;10.80;99.90
18426;DHT22;9340;48.756;9.226;2022-12-28T13:16:25;10.80;99.90
18426;DHT22;9340;48.756;9.226;2022-12-28T13:18:54;10.70;99.90
18426;DHT22;9340;48.756;9.226;2022-12-28T13:21:22;10.70;99.90
18426;DHT22;9340;48.756;9.226;2022-12-28T13:23:50;10.70;99.90
18426;DHT22;9340;48.756;9.226;2022-12-28T13:26:21;10.60;99.90
18426;DHT22;9340;48.756;9.226;2022-12-28T13:28:52;10.60;99.90
18426;DHT22;9340;48.756;9.226;2022-12-28T13:31:27;10.60;99.90
18426;DHT22;9340;48.756;9.226;2022-12-28T13:33:56;10.50;99.90
18426;DHT22;9340;48.756;9.226;2022-12-28T13:36:24;10.40;99.90
18426;DHT22;9340;48.756;9.226;2022-12-28T13:39:11;10.40;99.90
18426;DHT22;9340;48.756;9.226;2022-12-28T13:41:48;10.30;99.90
18426;DHT22;9340;48.756;9.226;2022-12-28T13:44:33;10.30;99.90
18426;DHT22;9340;48.756;9.226;2022-12-28T13:47:09;10.30;99.90
18426;DHT22;9340;48.756;9.226;2022-12-28T13:49:42;10.30;99.90
18426;DHT22;9340;48.756;9.226;2022-12-28T13:52:16;10.20;99.90
18426;DHT22;9340;48.756;9.226;2022-12-28T13:54:52;10.20;99.90
18426;DHT22;9340;48.756;9.226;2022-12-28T13:57:22;10.20;99.90
18426;DHT22;9340;48.756;9.226;2022-12-28T13:59:54;10.20;99.90
18426;DHT22;9340;48.756;9.226;2022-12-28T14:02:26;10.10;99.90
18426;DHT22;9340;48.756;9.226;2022-12-28T14:04:55;10.00;99.90
18426;DHT22;9340;48.756;9.226;2022-12-28T14:07:26;10.00;99.90
18426;DHT22;9340;48.756;9.226;2022-12-28T14:09:56;10.00;99.90
18426;DHT22;9340;48.756;9.226;2022-12-28T14:12:24;10.00;99.90
18426;DHT22;9340;48.756;9.226;2022-12-28T14:14:52;9.90;99.90
18426;DHT22;9340;48.756;9.226;2022-12-28T14:17:20;9.90;99.90
18426;DHT22;9340;48.756;9.226;2022-12-28T14:19:51;9.90;99.90
18426;DHT22;9340;48.756;9.226;2022-12-28T14:22:30;9.90;99.90
18426;DHT22;9340;48.756;9.226;2022-12-28T14:25:01;9.90;99.90
18426;DHT22;9340;48.756;9.226;2022-12-28T14:27:32;9.90;99.90
18426;DHT22;9340;48.756;9.226;2022-12-28T14:30:01;10.00;99.90
18426;DHT22;9340;48.756;9.226;2022-12-28T14:32:29;9.90;99.90
18426;DHT22;9340;48.756;9.226;2022-12-28T14:35:00;9.90;99.90
18426;DHT22;9340;48.756;9.226;2022-12-28T14:37:32;9.90;99.90
18426;DHT22;9340;48.756;9.226;2022-12-28T14:40:03;9.90;99.90
18426;DHT22;9340;48.756;9.226;2022-12-28T14:42:31;9.80;99.90
18426;DHT22;9340;48.756;9.226;2022-12-28T14:45:22;9.80;99.90
18426;DHT22;9340;48.756;9.226;2022-12-28T14:47:56;9.80;99.90
18426;DHT22;9340;48.756;9.226;2022-12-28T14:50:26;9.70;99.90
18426;DHT22;9340;48.756;9.226;2022-12-28T14:53:01;9.70;99.90
18426;DHT22;9340;48.756;9.226;2022-12-28T14:55:35;9.70;99.90
18426;DHT22;9340;48.756;9.226;2022-12-28T14:58:12;9.70;99.90
18426;DHT22;9340;48.756;9.226;2022-12-28T15:00:55;9.80;99.90
18426;DHT22;9340;48.756;9.226;2022-12-28T15:03:25;9.70;99.90
18426;DHT22;9340;48.756;9.226;2022-12-28T15:05:59;9.60;99.90
18426;DHT22;9340;48.756;9.226;2022-12-28T15:08:28;9.60;99.90
18426;DHT22;9340;48.756;9.226;2022-12-28T15:10:59;9.60;99.90
18426;DHT22;9340;48.756;9.226;2022-12-28T15:13:27;9.50;99.90
18426;DHT22;9340;48.756;9.226;2022-12-28T15:15:56;9.40;99.90
18426;DHT22;9340;48.756;9.226;2022-12-28T15:18:27;9.30;99.90
18426;DHT22;9340;48.756;9.226;2022-12-28T15:21:03;9.20;99.90
18426;DHT22;9340;48.756;9.226;2022-12-28T15:23:32;9.20;99.90
18426;DHT22;9340;48.756;9.226;2022-12-28T15:26:05;9.20;99.90
18426;DHT22;9340;48.756;9.226;2022-12-28T15:28:33;9.10;99.90
18426;DHT22;9340;48.756;9.226;2022-12-28T15:31:04;8.90;99.90
18426;DHT22;9340;48.756;9.226;2022-12-28T15:33:33;8.80;99.90
18426;DHT22;9340;48.756;9.226;2022-12-28T15:36:04;8.60;99.90
18426;DHT22;9340;48.756;9.226;2022-12-28T15:38:34;8.50;99.90
18426;DHT22;9340;48.756;9.226;2022-12-28T15:41:02;8.50;99.90
18426;DHT22;9340;48.756;9.226;2022-12-28T15:43:52;8.40;99.90
18426;DHT22;9340;48.756;9.226;2022-12-28T15:46:20;8.30;99.90
18426;DHT22;9340;48.756;9.226;2022-12-28T15:48:47;8.20;99.90
18426;DHT22;9340;48.756;9.226;2022-12-28T15:51:18;8.10;99.90
18426;DHT22;9340;48.756;9.226;2022-12-28T15:53:46;8.00;99.90
18426;DHT22;9340;48.756;9.226;2022-12-28T15:56:20;7.80;99.90
18426;DHT22;9340;48.756;9.226;2022-12-28T15:58:53;7.70;99.90
18426;DHT22;9340;48.756;9.226;2022-12-28T16:01:24;7.60;99.90
18426;DHT22;9340;48.756;9.226;2022-12-28T16:03:56;7.60;99.90
18426;DHT22;9340;48.756;9.226;2022-12-28T16:06:28;7.50;99.90
18426;DHT22;9340;48.756;9.226;2022-12-28T16:08:59;7.40;99.90
18426;DHT22;9340;48.756;9.226;2022-12-28T16:11:27;7.30;99.90
18426;DHT22;9340;48.756;9.226;2022-12-28T16:13:56;7.30;99.90
18426;DHT22;9340;48.756;9.226;2022-12-28T16:16:30;7.30;99.90
18426;DHT22;9340;48.756;9.226;2022-12-28T16:18:59;7.20;99.90
18426;DHT22;9340;48.756;9.226;2022-12-28T16:21:29;7.20;99.90
18426;DHT22;9340;48.756;9.226;2022-12-28T16:23:58;7.10;99.90
18426;DHT22;9340;48.756;9.226;2022-12-28T16:26:26;7.10;99.90
18426;DHT22;9340;48.756;9.226;2022-12-28T16:28:54;7.20;99.90
18426;DHT22;9340;48.756;9.226;2022-12-28T16:31:24;7.10;99.90
18426;DHT22;9340;48.756;9.226;2022-12-28T16:33:56;7.10;99.90
18426;DHT22;9340;48.756;9.226;2022-12-28T16:36:26;7.00;99.90
18426;DHT22;9340;48.756;9.226;2022-12-28T16:38:55;7.00;99.90
18426;DHT22;9340;48.756;9.226;2022-12-28T16:41:25;7.00;99.90
18426;DHT22;9340;48.756;9.226;2022-12-28T16:44:00;7.00;99.90